sensor_id;sensor_type;location;lat;lon;timestamp;P1;durP1;ratioP1;P2;durP2;ratioP2
15082;SDS011;7640;53.116;6.878;2023-06-22T00:01:28;28.50;;;25.27;;
15082;SDS011;7640;53.116;6.878;2023-06-22T00:03:56;28.50;;;24.90;;
15082;SDS011;7640;53.116;6.878;2023-06-22T00:06:25;32.97;;;28.97;;
15082;SDS011;7640;53.116;6.878;2023-06-22T00:08:53;29.27;;;24.90;;
15082;SDS011;7640;53.116;6.878;2023-06-22T00:11:22;32.90;;;28.90;;
15082;SDS011;7640;53.116;6.878;2023-06-22T00:13:50;29.40;;;25.63;;
15082;SDS011;7640;53.116;6.878;2023-06-22T00:16:21;30.13;;;25.33;;
15082;SDS011;7640;53.116;6.878;2023-06-22T00:18:52;30.53;;;26.87;;
15082;SDS011;7640;53.116;6.878;2023-06-22T00:21:20;33.23;;;28.63;;
15082;SDS011;7640;53.116;6.878;2023-06-22T00:23:48;33.87;;;27.20;;
15082;SDS011;7640;53.116;6.878;2023-06-22T00:26:17;30.17;;;25.90;;
15082;SDS011;7640;53.116;6.878;2023-06-22T00:28:45;28.90;;;25.33;;
15082;SDS011;7640;53.116;6.878;2023-06-22T00:31:14;31.20;;;27.93;;
15082;SDS011;7640;53.116;6.878;2023-06-22T00:33:43;28.47;;;25.23;;
15082;SDS011;7640;53.116;6.878;2023-06-22T00:36:13;32.80;;;26.97;;
15082;SDS011;7640;53.116;6.878;2023-06-22T00:38:42;32.40;;;28.47;;
15082;SDS011;7640;53.116;6.878;2023-06-22T00:41:11;31.30;;;27.93;;
15082;SDS011;7640;53.116;6.878;2023-06-22T00:43:40;29.17;;;25.53;;
15082;SDS011;7640;53.116;6.878;2023-06-22T00:46:08;33.43;;;29.83;;
15082;SDS011;7640;53.116;6.878;2023-06-22T00:48:37;30.93;;;27.63;;
15082;SDS011;7640;53.116;6.878;2023-06-22T00:51:08;32.43;;;29.03;;
15082;SDS011;7640;53.116;6.878;2023-06-22T00:53:38;30.50;;;27.30;;
15082;SDS011;7640;53.116;6.878;2023-06-22T00:56:07;30.10;;;26.87;;
15082;SDS011;7640;53.116;6.878;2023-06-22T00:58:39;34.83;;;31.13;;
15082;SDS011;7640;53.116;6.878;2023-06-22T01:01:08;33.67;;;29.90;;
15082;SDS011;7640;53.116;6.878;2023-06-22T01:03:36;32.33;;;28.70;;
15082;SDS011;7640;53.116;6.878;2023-06-22T01:06:07;36.37;;;31.77;;
15082;SDS011;7640;53.116;6.878;2023-06-22T01:08:41;34.50;;;30.77;;
15082;SDS011;7640;53.116;6.878;2023-06-22T01:11:17;32.87;;;28.27;;
15082;SDS011;7640;53.116;6.878;2023-06-22T01:13:56;34.57;;;30.73;;
15082;SDS011;7640;53.116;6.878;2023-06-22T01:16:31;33.97;;;30.27;;
15082;SDS011;7640;53.116;6.878;2023-06-22T01:19:12;38.07;;;30.80;;
15082;SDS011;7640;53.116;6.878;2023-06-22T01:21:57;38.20;;;31.33;;
15082;SDS011;7640;53.116;6.878;2023-06-22T01:24:32;36.90;;;31.80;;
15082;SDS011;7640;53.116;6.878;2023-06-22T01:27:17;36.87;;;32.87;;
15082;SDS011;7640;53.116;6.878;2023-06-22T01:30:01;38.77;;;33.13;;
15082;SDS011;7640;53.116;6.878;2023-06-22T01:32:34;42.57;;;35.20;;
15082;SDS011;7640;53.116;6.878;2023-06-22T01:35:05;42.67;;;35.87;;
15082;SDS011;7640;53.116;6.878;2023-06-22T01:37:35;37.70;;;32.77;;
15082;SDS011;7640;53.116;6.878;2023-06-22T01:40:06;38.17;;;33.63;;
15082;SDS011;7640;53.116;6.878;2023-06-22T01:42:36;39.67;;;33.97;;
15082;SDS011;7640;53.116;6.878;2023-06-22T01:45:08;40.73;;;35.37;;
15082;SDS011;7640;53.116;6.878;2023-06-22T01:47:39;37.87;;;31.17;;
15082;SDS011;7640;53.116;6.878;2023-06-22T01:50:08;37.33;;;33.10;;
15082;SDS011;7640;53.116;6.878;2023-06-22T01:52:38;37.90;;;33.83;;
15082;SDS011;7640;53.116;6.878;2023-06-22T01:55:07;46.60;;;38.97;;
15082;SDS011;7640;53.116;6.878;2023-06-22T01:57:36;41.70;;;35.13;;
15082;SDS011;7640;53.116;6.878;2023-06-22T02:00:07;42.73;;;36.10;;
15082;SDS011;7640;53.116;6.878;2023-06-22T02:02:43;37.83;;;32.97;;
15082;SDS011;7640;53.116;6.878;2023-06-22T02:05:19;41.53;;;36.53;;
15082;SDS011;7640;53.116;6.878;2023-06-22T02:07:52;41.87;;;35.50;;
15082;SDS011;7640;53.116;6.878;2023-06-22T02:10:28;41.73;;;35.30;;
15082;SDS011;7640;53.116;6.878;2023-06-22T02:12:57;41.93;;;35.70;;
15082;SDS011;7640;53.116;6.878;2023-06-22T02:15:30;41.10;;;35.03;;
15082;SDS011;7640;53.116;6.878;2023-06-22T02:17:59;45.37;;;38.27;;
15082;SDS011;7640;53.116;6.878;2023-06-22T02:20:28;41.07;;;35.20;;
15082;SDS011;7640;53.116;6.878;2023-06-22T02:22:58;45.33;;;37.83;;
15082;SDS011;7640;53.116;6.878;2023-06-22T02:25:27;45.70;;;37.87;;
15082;SDS011;7640;53.116;6.878;2023-06-22T02:27:55;41.07;;;36.17;;
15082;SDS011;7640;53.116;6.878;2023-06-22T02:30:24;41.17;;;35.83;;
15082;SDS011;7640;53.116;6.878;2023-06-22T02:32:55;44.23;;;38.70;;
15082;SDS011;7640;53.116;6.878;2023-06-22T02:35:26;40.67;;;35.87;;
15082;SDS011;7640;53.116;6.878;2023-06-22T02:37:58;42.57;;;36.53;;
15082;SDS011;7640;53.116;6.878;2023-06-22T02:40:27;40.27;;;34.23;;
15082;SDS011;7640;53.116;6.878;2023-06-22T02:42:57;41.97;;;34.43;;
15082;SDS011;7640;53.116;6.878;2023-06-22T02:45:29;39.77;;;35.47;;
15082;SDS011;7640;53.116;6.878;2023-06-22T02:47:59;41.37;;;35.53;;
15082;SDS011;7640;53.116;6.878;2023-06-22T02:50:28;36.60;;;31.80;;
15082;SDS011;7640;53.116;6.878;2023-06-22T02:52:57;47.30;;;39.77;;
15082;SDS011;7640;53.116;6.878;2023-06-22T02:55:25;44.90;;;37.90;;
15082;SDS011;7640;53.116;6.878;2023-06-22T02:57:55;39.57;;;33.87;;
15082;SDS011;7640;53.116;6.878;2023-06-22T03:00:23;43.63;;;36.97;;
15082;SDS011;7640;53.116;6.878;2023-06-22T03:02:58;46.30;;;36.67;;
15082;SDS011;7640;53.116;6.878;2023-06-22T03:05:27;42.83;;;36.50;;
15082;SDS011;7640;53.116;6.878;2023-06-22T03:07:56;43.80;;;39.00;;
15082;SDS011;7640;53.116;6.878;2023-06-22T03:10:24;47.10;;;40.87;;
15082;SDS011;7640;53.116;6.878;2023-06-22T03:12:54;46.23;;;40.97;;
15082;SDS011;7640;53.116;6.878;2023-06-22T03:15:23;51.20;;;42.83;;
15082;SDS011;7640;53.116;6.878;2023-06-22T03:17:52;50.50;;;43.67;;
15082;SDS011;7640;53.116;6.878;2023-06-22T03:20:23;45.13;;;39.37;;
15082;SDS011;7640;53.116;6.878;2023-06-22T03:22:54;50.00;;;42.53;;
15082;SDS011;7640;53.116;6.878;2023-06-22T03:25:22;45.53;;;40.53;;
15082;SDS011;7640;53.116;6.878;2023-06-22T03:27:51;51.77;;;44.83;;
15082;SDS011;7640;53.116;6.878;2023-06-22T03:30:20;49.97;;;42.20;;
15082;SDS011;7640;53.116;6.878;2023-06-22T03:32:48;44.67;;;37.80;;
15082;SDS011;7640;53.116;6.878;2023-06-22T03:35:17;49.93;;;42.57;;
15082;SDS011;7640;53.116;6.878;2023-06-22T03:37:47;50.97;;;42.70;;
15082;SDS011;7640;53.116;6.878;2023-06-22T03:40:16;51.03;;;42.67;;
15082;SDS011;7640;53.116;6.878;2023-06-22T03:42:45;45.30;;;38.60;;
15082;SDS011;7640;53.116;6.878;2023-06-22T03:45:13;51.40;;;42.03;;
15082;SDS011;7640;53.116;6.878;2023-06-22T03:47:42;53.70;;;45.10;;
15082;SDS011;7640;53.116;6.878;2023-06-22T03:50:11;60.13;;;48.73;;
15082;SDS011;7640;53.116;6.878;2023-06-22T03:52:41;52.93;;;44.03;;
15082;SDS011;7640;53.116;6.878;2023-06-22T03:55:11;63.97;;;50.40;;
15082;SDS011;7640;53.116;6.878;2023-06-22T03:57:40;57.10;;;48.47;;
15082;SDS011;7640;53.116;6.878;2023-06-22T04:00:09;63.90;;;49.77;;
15082;SDS011;7640;53.116;6.878;2023-06-22T04:02:40;55.90;;;45.47;;
15082;SDS011;7640;53.116;6.878;2023-06-22T04:05:09;49.90;;;41.97;;
15082;SDS011;7640;53.116;6.878;2023-06-22T04:07:38;57.53;;;47.47;;
15082;SDS011;7640;53.116;6.878;2023-06-22T04:10:06;63.53;;;49.87;;
15082;SDS011;7640;53.116;6.878;2023-06-22T04:12:40;55.67;;;46.20;;
15082;SDS011;7640;53.116;6.878;2023-06-22T04:15:09;58.03;;;45.40;;
15082;SDS011;7640;53.116;6.878;2023-06-22T04:17:38;59.70;;;45.00;;
15082;SDS011;7640;53.116;6.878;2023-06-22T04:20:07;55.60;;;43.33;;
15082;SDS011;7640;53.116;6.878;2023-06-22T04:22:36;54.93;;;44.93;;
15082;SDS011;7640;53.116;6.878;2023-06-22T04:25:05;54.33;;;41.93;;
15082;SDS011;7640;53.116;6.878;2023-06-22T04:27:35;55.33;;;43.73;;
15082;SDS011;7640;53.116;6.878;2023-06-22T04:30:08;55.30;;;45.10;;
15082;SDS011;7640;53.116;6.878;2023-06-22T04:32:38;53.50;;;43.87;;
15082;SDS011;7640;53.116;6.878;2023-06-22T04:35:08;54.07;;;44.10;;
15082;SDS011;7640;53.116;6.878;2023-06-22T04:37:36;54.77;;;44.57;;
15082;SDS011;7640;53.116;6.878;2023-06-22T04:40:06;51.57;;;42.63;;
15082;SDS011;7640;53.116;6.878;2023-06-22T04:42:37;58.10;;;47.33;;
15082;SDS011;7640;53.116;6.878;2023-06-22T04:45:09;53.93;;;43.40;;
15082;SDS011;7640;53.116;6.878;2023-06-22T04:47:39;57.13;;;46.03;;
15082;SDS011;7640;53.116;6.878;2023-06-22T04:50:08;49.30;;;40.80;;
15082;SDS011;7640;53.116;6.878;2023-06-22T04:52:37;58.07;;;45.77;;
15082;SDS011;7640;53.116;6.878;2023-06-22T04:55:06;56.53;;;46.07;;
15082;SDS011;7640;53.116;6.878;2023-06-22T04:57:35;59.33;;;46.17;;
15082;SDS011;7640;53.116;6.878;2023-06-22T05:00:06;53.03;;;41.70;;
15082;SDS011;7640;53.116;6.878;2023-06-22T05:02:41;48.23;;;39.60;;
15082;SDS011;7640;53.116;6.878;2023-06-22T05:05:10;46.93;;;39.90;;
15082;SDS011;7640;53.116;6.878;2023-06-22T05:07:43;48.57;;;40.10;;
15082;SDS011;7640;53.116;6.878;2023-06-22T05:10:15;46.17;;;38.30;;
15082;SDS011;7640;53.116;6.878;2023-06-22T05:12:43;42.07;;;35.83;;
15082;SDS011;7640;53.116;6.878;2023-06-22T05:15:12;40.73;;;35.67;;
15082;SDS011;7640;53.116;6.878;2023-06-22T05:17:42;40.20;;;34.57;;
15082;SDS011;7640;53.116;6.878;2023-06-22T05:20:12;37.40;;;33.30;;
15082;SDS011;7640;53.116;6.878;2023-06-22T05:22:44;37.77;;;33.20;;
15082;SDS011;7640;53.116;6.878;2023-06-22T05:25:13;39.63;;;32.87;;
15082;SDS011;7640;53.116;6.878;2023-06-22T05:27:41;42.53;;;35.77;;
15082;SDS011;7640;53.116;6.878;2023-06-22T05:30:10;43.23;;;36.60;;
15082;SDS011;7640;53.116;6.878;2023-06-22T05:32:39;41.17;;;36.57;;
15082;SDS011;7640;53.116;6.878;2023-06-22T05:35:09;44.93;;;39.97;;
15082;SDS011;7640;53.116;6.878;2023-06-22T05:37:38;46.47;;;40.03;;
15082;SDS011;7640;53.116;6.878;2023-06-22T05:40:08;46.67;;;39.43;;
15082;SDS011;7640;53.116;6.878;2023-06-22T05:42:38;43.33;;;36.43;;
15082;SDS011;7640;53.116;6.878;2023-06-22T05:45:07;42.47;;;37.00;;
15082;SDS011;7640;53.116;6.878;2023-06-22T05:47:36;45.27;;;38.53;;
15082;SDS011;7640;53.116;6.878;2023-06-22T05:50:05;42.17;;;37.37;;
15082;SDS011;7640;53.116;6.878;2023-06-22T05:52:40;40.27;;;35.50;;
15082;SDS011;7640;53.116;6.878;2023-06-22T05:55:08;39.73;;;35.00;;
15082;SDS011;7640;53.116;6.878;2023-06-22T05:57:37;43.03;;;35.37;;
15082;SDS011;7640;53.116;6.878;2023-06-22T06:00:07;35.37;;;31.57;;
15082;SDS011;7640;53.116;6.878;2023-06-22T06:02:39;35.47;;;31.80;;
15082;SDS011;7640;53.116;6.878;2023-06-22T06:05:10;33.30;;;29.80;;
15082;SDS011;7640;53.116;6.878;2023-06-22T06:07:42;36.07;;;30.87;;
15082;SDS011;7640;53.116;6.878;2023-06-22T06:10:11;31.97;;;28.63;;
15082;SDS011;7640;53.116;6.878;2023-06-22T06:12:40;27.07;;;24.00;;
15082;SDS011;7640;53.116;6.878;2023-06-22T06:15:10;26.70;;;24.00;;
15082;SDS011;7640;53.116;6.878;2023-06-22T06:17:44;25.63;;;23.13;;
15082;SDS011;7640;53.116;6.878;2023-06-22T06:20:14;24.33;;;21.87;;
15082;SDS011;7640;53.116;6.878;2023-06-22T06:22:44;23.27;;;20.83;;
15082;SDS011;7640;53.116;6.878;2023-06-22T06:25:13;21.00;;;18.80;;
15082;SDS011;7640;53.116;6.878;2023-06-22T06:27:43;18.83;;;17.03;;
15082;SDS011;7640;53.116;6.878;2023-06-22T06:30:12;20.20;;;18.00;;
15082;SDS011;7640;53.116;6.878;2023-06-22T06:32:42;22.67;;;18.47;;
15082;SDS011;7640;53.116;6.878;2023-06-22T06:35:13;19.63;;;17.67;;
15082;SDS011;7640;53.116;6.878;2023-06-22T06:37:45;19.40;;;17.40;;
15082;SDS011;7640;53.116;6.878;2023-06-22T06:40:16;18.57;;;16.80;;
15082;SDS011;7640;53.116;6.878;2023-06-22T06:42:47;19.77;;;17.77;;
15082;SDS011;7640;53.116;6.878;2023-06-22T06:45:17;20.23;;;18.13;;
15082;SDS011;7640;53.116;6.878;2023-06-22T06:47:49;19.35;;;17.33;;
15082;SDS011;7640;53.116;6.878;2023-06-22T06:50:19;18.87;;;17.07;;
15082;SDS011;7640;53.116;6.878;2023-06-22T06:52:50;18.50;;;16.70;;
15082;SDS011;7640;53.116;6.878;2023-06-22T06:55:18;18.20;;;16.43;;
15082;SDS011;7640;53.116;6.878;2023-06-22T06:57:47;16.17;;;13.88;;
15082;SDS011;7640;53.116;6.878;2023-06-22T07:00:16;15.00;;;13.60;;
15082;SDS011;7640;53.116;6.878;2023-06-22T07:02:46;16.40;;;14.70;;
15082;SDS011;7640;53.116;6.878;2023-06-22T07:05:15;14.27;;;12.77;;
15082;SDS011;7640;53.116;6.878;2023-06-22T07:07:44;14.65;;;13.23;;
15082;SDS011;7640;53.116;6.878;2023-06-22T07:10:14;15.57;;;13.98;;
15082;SDS011;7640;53.116;6.878;2023-06-22T07:12:42;14.48;;;13.10;;
15082;SDS011;7640;53.116;6.878;2023-06-22T07:15:11;13.43;;;12.15;;
15082;SDS011;7640;53.116;6.878;2023-06-22T07:17:41;14.18;;;12.68;;
15082;SDS011;7640;53.116;6.878;2023-06-22T07:20:10;14.90;;;13.20;;
15082;SDS011;7640;53.116;6.878;2023-06-22T07:22:40;13.63;;;12.30;;
15082;SDS011;7640;53.116;6.878;2023-06-22T07:25:11;14.23;;;12.73;;
15082;SDS011;7640;53.116;6.878;2023-06-22T07:27:45;12.65;;;11.52;;
15082;SDS011;7640;53.116;6.878;2023-06-22T07:30:25;12.68;;;11.40;;
15082;SDS011;7640;53.116;6.878;2023-06-22T07:32:55;12.77;;;11.48;;
15082;SDS011;7640;53.116;6.878;2023-06-22T07:35:25;12.10;;;10.90;;
15082;SDS011;7640;53.116;6.878;2023-06-22T07:37:55;12.25;;;11.00;;
15082;SDS011;7640;53.116;6.878;2023-06-22T07:40:24;11.60;;;10.18;;
15082;SDS011;7640;53.116;6.878;2023-06-22T07:42:54;10.07;;;8.82;;
15082;SDS011;7640;53.116;6.878;2023-06-22T07:45:23;10.68;;;9.57;;
15082;SDS011;7640;53.116;6.878;2023-06-22T07:47:51;11.10;;;9.90;;
15082;SDS011;7640;53.116;6.878;2023-06-22T07:50:20;11.20;;;10.10;;
15082;SDS011;7640;53.116;6.878;2023-06-22T07:52:49;11.40;;;10.27;;
15082;SDS011;7640;53.116;6.878;2023-06-22T07:55:23;11.80;;;10.23;;
15082;SDS011;7640;53.116;6.878;2023-06-22T07:57:52;10.98;;;9.88;;
15082;SDS011;7640;53.116;6.878;2023-06-22T08:00:22;10.57;;;9.48;;
15082;SDS011;7640;53.116;6.878;2023-06-22T08:02:50;9.77;;;8.77;;
15082;SDS011;7640;53.116;6.878;2023-06-22T08:05:19;11.15;;;9.93;;
15082;SDS011;7640;53.116;6.878;2023-06-22T08:07:48;11.88;;;10.68;;
15082;SDS011;7640;53.116;6.878;2023-06-22T08:10:17;12.10;;;10.70;;
15082;SDS011;7640;53.116;6.878;2023-06-22T08:12:49;11.85;;;10.63;;
15082;SDS011;7640;53.116;6.878;2023-06-22T08:15:19;10.55;;;9.45;;
15082;SDS011;7640;53.116;6.878;2023-06-22T08:17:50;10.57;;;9.57;;
15082;SDS011;7640;53.116;6.878;2023-06-22T08:20:19;28.60;;;15.30;;
15082;SDS011;7640;53.116;6.878;2023-06-22T08:22:48;20.17;;;12.15;;
15082;SDS011;7640;53.116;6.878;2023-06-22T08:25:16;11.88;;;9.57;;
15082;SDS011;7640;53.116;6.878;2023-06-22T08:27:45;9.82;;;8.82;;
15082;SDS011;7640;53.116;6.878;2023-06-22T08:30:15;9.52;;;8.38;;
15082;SDS011;7640;53.116;6.878;2023-06-22T08:32:44;9.70;;;8.05;;
15082;SDS011;7640;53.116;6.878;2023-06-22T08:35:14;10.02;;;9.02;;
15082;SDS011;7640;53.116;6.878;2023-06-22T08:37:43;9.25;;;7.68;;
15082;SDS011;7640;53.116;6.878;2023-06-22T08:40:17;7.68;;;6.95;;
15082;SDS011;7640;53.116;6.878;2023-06-22T08:42:47;9.18;;;8.20;;
15082;SDS011;7640;53.116;6.878;2023-06-22T08:45:16;9.15;;;7.95;;
15082;SDS011;7640;53.116;6.878;2023-06-22T08:47:44;8.85;;;8.00;;
15082;SDS011;7640;53.116;6.878;2023-06-22T08:50:15;7.32;;;6.35;;
15082;SDS011;7640;53.116;6.878;2023-06-22T08:52:43;7.97;;;7.18;;
15082;SDS011;7640;53.116;6.878;2023-06-22T08:55:12;9.63;;;7.40;;
15082;SDS011;7640;53.116;6.878;2023-06-22T08:57:41;8.90;;;7.70;;
15082;SDS011;7640;53.116;6.878;2023-06-22T09:00:10;10.05;;;9.05;;
15082;SDS011;7640;53.116;6.878;2023-06-22T09:02:44;9.75;;;8.85;;
15082;SDS011;7640;53.116;6.878;2023-06-22T09:05:15;10.38;;;8.55;;
15082;SDS011;7640;53.116;6.878;2023-06-22T09:07:44;10.15;;;9.15;;
15082;SDS011;7640;53.116;6.878;2023-06-22T09:10:13;9.38;;;7.47;;
15082;SDS011;7640;53.116;6.878;2023-06-22T09:12:42;8.52;;;7.72;;
15082;SDS011;7640;53.116;6.878;2023-06-22T09:15:10;9.73;;;8.73;;
15082;SDS011;7640;53.116;6.878;2023-06-22T09:17:43;8.23;;;7.43;;
15082;SDS011;7640;53.116;6.878;2023-06-22T09:20:15;9.18;;;7.45;;
15082;SDS011;7640;53.116;6.878;2023-06-22T09:22:43;8.00;;;7.20;;
15082;SDS011;7640;53.116;6.878;2023-06-22T09:25:12;10.70;;;8.02;;
15082;SDS011;7640;53.116;6.878;2023-06-22T09:27:41;8.15;;;7.35;;
15082;SDS011;7640;53.116;6.878;2023-06-22T09:30:10;8.85;;;7.68;;
15082;SDS011;7640;53.116;6.878;2023-06-22T09:32:39;8.48;;;7.05;;
15082;SDS011;7640;53.116;6.878;2023-06-22T09:35:08;7.68;;;6.80;;
15082;SDS011;7640;53.116;6.878;2023-06-22T09:37:40;8.68;;;7.78;;
15082;SDS011;7640;53.116;6.878;2023-06-22T09:40:09;8.75;;;7.15;;
15082;SDS011;7640;53.116;6.878;2023-06-22T09:42:39;9.05;;;8.13;;
15082;SDS011;7640;53.116;6.878;2023-06-22T09:45:09;7.63;;;6.82;;
15082;SDS011;7640;53.116;6.878;2023-06-22T09:47:38;6.90;;;6.20;;
15082;SDS011;7640;53.116;6.878;2023-06-22T09:50:07;7.72;;;5.43;;
15082;SDS011;7640;53.116;6.878;2023-06-22T09:52:36;7.03;;;6.30;;
15082;SDS011;7640;53.116;6.878;2023-06-22T09:55:09;7.75;;;6.40;;
15082;SDS011;7640;53.116;6.878;2023-06-22T09:57:37;8.02;;;7.15;;
15082;SDS011;7640;53.116;6.878;2023-06-22T10:00:06;8.65;;;6.55;;
15082;SDS011;7640;53.116;6.878;2023-06-22T10:02:38;6.93;;;5.85;;
15082;SDS011;7640;53.116;6.878;2023-06-22T10:05:07;7.80;;;6.55;;
15082;SDS011;7640;53.116;6.878;2023-06-22T10:07:37;8.02;;;6.05;;
15082;SDS011;7640;53.116;6.878;2023-06-22T10:10:11;8.73;;;7.90;;
15082;SDS011;7640;53.116;6.878;2023-06-22T10:12:41;7.07;;;5.82;;
15082;SDS011;7640;53.116;6.878;2023-06-22T10:15:12;7.70;;;6.90;;
15082;SDS011;7640;53.116;6.878;2023-06-22T10:17:42;7.03;;;6.38;;
15082;SDS011;7640;53.116;6.878;2023-06-22T10:20:11;7.43;;;5.97;;
15082;SDS011;7640;53.116;6.878;2023-06-22T10:22:40;7.63;;;6.68;;
15082;SDS011;7640;53.116;6.878;2023-06-22T10:25:11;6.82;;;6.13;;
15082;SDS011;7640;53.116;6.878;2023-06-22T10:27:40;7.20;;;6.50;;
15082;SDS011;7640;53.116;6.878;2023-06-22T10:30:09;7.65;;;6.80;;
15082;SDS011;7640;53.116;6.878;2023-06-22T10:32:40;6.68;;;5.97;;
15082;SDS011;7640;53.116;6.878;2023-06-22T10:35:10;7.45;;;6.70;;
15082;SDS011;7640;53.116;6.878;2023-06-22T10:37:43;9.95;;;7.85;;
15082;SDS011;7640;53.116;6.878;2023-06-22T10:40:13;6.93;;;6.00;;
15082;SDS011;7640;53.116;6.878;2023-06-22T10:42:45;8.40;;;6.93;;
15082;SDS011;7640;53.116;6.878;2023-06-22T10:45:13;7.88;;;6.93;;
15082;SDS011;7640;53.116;6.878;2023-06-22T10:47:42;7.90;;;7.00;;
15082;SDS011;7640;53.116;6.878;2023-06-22T10:50:12;7.22;;;6.53;;
15082;SDS011;7640;53.116;6.878;2023-06-22T10:52:41;7.65;;;6.53;;
15082;SDS011;7640;53.116;6.878;2023-06-22T10:55:09;6.60;;;6.10;;
15082;SDS011;7640;53.116;6.878;2023-06-22T10:57:39;7.88;;;6.65;;
15082;SDS011;7640;53.116;6.878;2023-06-22T11:00:12;6.82;;;5.72;;
15082;SDS011;7640;53.116;6.878;2023-06-22T11:02:43;7.47;;;6.78;;
15082;SDS011;7640;53.116;6.878;2023-06-22T11:05:13;8.60;;;7.18;;
15082;SDS011;7640;53.116;6.878;2023-06-22T11:07:42;8.45;;;6.72;;
15082;SDS011;7640;53.116;6.878;2023-06-22T11:10:12;7.55;;;6.43;;
15082;SDS011;7640;53.116;6.878;2023-06-22T11:12:42;7.20;;;6.35;;
15082;SDS011;7640;53.116;6.878;2023-06-22T11:15:11;6.47;;;5.88;;
15082;SDS011;7640;53.116;6.878;2023-06-22T11:17:40;6.93;;;6.20;;
15082;SDS011;7640;53.116;6.878;2023-06-22T11:20:09;7.70;;;6.97;;
15082;SDS011;7640;53.116;6.878;2023-06-22T11:22:39;7.93;;;7.13;;
15082;SDS011;7640;53.116;6.878;2023-06-22T11:25:09;6.57;;;5.82;;
15082;SDS011;7640;53.116;6.878;2023-06-22T11:27:39;8.38;;;7.30;;
15082;SDS011;7640;53.116;6.878;2023-06-22T11:30:10;8.40;;;6.68;;
15082;SDS011;7640;53.116;6.878;2023-06-22T11:32:39;6.80;;;6.10;;
15082;SDS011;7640;53.116;6.878;2023-06-22T11:35:08;6.35;;;5.65;;
15082;SDS011;7640;53.116;6.878;2023-06-22T11:37:37;8.45;;;7.65;;
15082;SDS011;7640;53.116;6.878;2023-06-22T11:40:06;7.55;;;6.75;;
15082;SDS011;7640;53.116;6.878;2023-06-22T11:42:35;7.97;;;7.18;;
15082;SDS011;7640;53.116;6.878;2023-06-22T11:45:05;8.68;;;7.53;;
15082;SDS011;7640;53.116;6.878;2023-06-22T11:47:36;8.05;;;6.35;;
15082;SDS011;7640;53.116;6.878;2023-06-22T11:50:06;8.45;;;7.65;;
15082;SDS011;7640;53.116;6.878;2023-06-22T11:52:36;9.07;;;8.15;;
15082;SDS011;7640;53.116;6.878;2023-06-22T11:55:05;7.97;;;6.50;;
15082;SDS011;7640;53.116;6.878;2023-06-22T11:57:35;9.13;;;7.82;;
15082;SDS011;7640;53.116;6.878;2023-06-22T12:00:06;7.53;;;6.82;;
15082;SDS011;7640;53.116;6.878;2023-06-22T12:02:45;8.85;;;7.93;;
15082;SDS011;7640;53.116;6.878;2023-06-22T12:05:14;6.95;;;6.22;;
15082;SDS011;7640;53.116;6.878;2023-06-22T12:07:44;8.85;;;8.05;;
15082;SDS011;7640;53.116;6.878;2023-06-22T12:10:12;8.32;;;7.53;;
15082;SDS011;7640;53.116;6.878;2023-06-22T12:12:41;8.48;;;7.60;;
15082;SDS011;7640;53.116;6.878;2023-06-22T12:15:10;9.05;;;7.90;;
15082;SDS011;7640;53.116;6.878;2023-06-22T12:17:39;8.85;;;7.65;;
15082;SDS011;7640;53.116;6.878;2023-06-22T12:20:10;7.72;;;7.13;;
15082;SDS011;7640;53.116;6.878;2023-06-22T12:22:40;7.97;;;7.18;;
15082;SDS011;7640;53.116;6.878;2023-06-22T12:25:09;8.45;;;7.60;;
15082;SDS011;7640;53.116;6.878;2023-06-22T12:27:38;8.50;;;7.70;;
15082;SDS011;7640;53.116;6.878;2023-06-22T12:30:08;8.25;;;7.45;;
15082;SDS011;7640;53.116;6.878;2023-06-22T12:32:37;9.10;;;8.30;;
15082;SDS011;7640;53.116;6.878;2023-06-22T12:35:06;8.38;;;7.53;;
15082;SDS011;7640;53.116;6.878;2023-06-22T12:37:42;8.77;;;7.60;;
15082;SDS011;7640;53.116;6.878;2023-06-22T12:40:11;7.63;;;6.93;;
15082;SDS011;7640;53.116;6.878;2023-06-22T12:42:41;7.45;;;6.68;;
15082;SDS011;7640;53.116;6.878;2023-06-22T12:45:10;8.68;;;7.55;;
15082;SDS011;7640;53.116;6.878;2023-06-22T12:47:38;7.15;;;6.50;;
15082;SDS011;7640;53.116;6.878;2023-06-22T12:50:08;8.02;;;7.32;;
15082;SDS011;7640;53.116;6.878;2023-06-22T12:52:37;7.00;;;6.38;;
15082;SDS011;7640;53.116;6.878;2023-06-22T12:55:09;6.95;;;6.30;;
15082;SDS011;7640;53.116;6.878;2023-06-22T12:57:38;7.18;;;6.15;;
15082;SDS011;7640;53.116;6.878;2023-06-22T13:00:07;6.85;;;6.15;;
15082;SDS011;7640;53.116;6.878;2023-06-22T13:02:38;7.20;;;5.95;;
15082;SDS011;7640;53.116;6.878;2023-06-22T13:05:07;6.03;;;5.47;;
15082;SDS011;7640;53.116;6.878;2023-06-22T13:07:36;6.43;;;5.78;;
15082;SDS011;7640;53.116;6.878;2023-06-22T13:10:05;6.90;;;5.45;;
15082;SDS011;7640;53.116;6.878;2023-06-22T13:12:36;5.88;;;5.38;;
15082;SDS011;7640;53.116;6.878;2023-06-22T13:15:05;6.40;;;5.80;;
15082;SDS011;7640;53.116;6.878;2023-06-22T13:17:35;7.60;;;6.82;;
15082;SDS011;7640;53.116;6.878;2023-06-22T13:20:04;8.02;;;6.70;;
15082;SDS011;7640;53.116;6.878;2023-06-22T13:22:34;7.05;;;6.35;;
15082;SDS011;7640;53.116;6.878;2023-06-22T13:25:07;7.35;;;5.85;;
15082;SDS011;7640;53.116;6.878;2023-06-22T13:27:41;6.63;;;6.03;;
15082;SDS011;7640;53.116;6.878;2023-06-22T13:30:10;7.15;;;6.50;;
15082;SDS011;7640;53.116;6.878;2023-06-22T13:32:40;7.00;;;6.30;;
15082;SDS011;7640;53.116;6.878;2023-06-22T13:35:10;7.45;;;6.75;;
15082;SDS011;7640;53.116;6.878;2023-06-22T13:37:39;6.38;;;5.78;;
15082;SDS011;7640;53.116;6.878;2023-06-22T13:40:08;6.78;;;6.15;;
15082;SDS011;7640;53.116;6.878;2023-06-22T13:42:37;7.03;;;6.00;;
15082;SDS011;7640;53.116;6.878;2023-06-22T13:45:08;11.82;;;6.00;;
15082;SDS011;7640;53.116;6.878;2023-06-22T13:47:37;6.70;;;6.00;;
15082;SDS011;7640;53.116;6.878;2023-06-22T13:50:07;6.95;;;6.25;;
15082;SDS011;7640;53.116;6.878;2023-06-22T13:52:36;7.38;;;6.30;;
15082;SDS011;7640;53.116;6.878;2023-06-22T13:55:05;9.10;;;8.27;;
15082;SDS011;7640;53.116;6.878;2023-06-22T13:57:35;9.48;;;8.00;;
15082;SDS011;7640;53.116;6.878;2023-06-22T14:00:04;9.77;;;8.77;;
15082;SDS011;7640;53.116;6.878;2023-06-22T14:02:36;8.70;;;7.90;;
15082;SDS011;7640;53.116;6.878;2023-06-22T14:05:05;8.13;;;7.30;;
15082;SDS011;7640;53.116;6.878;2023-06-22T14:07:34;8.35;;;7.47;;
15082;SDS011;7640;53.116;6.878;2023-06-22T14:10:04;8.23;;;7.43;;
15082;SDS011;7640;53.116;6.878;2023-06-22T14:12:33;8.63;;;7.60;;
15082;SDS011;7640;53.116;6.878;2023-06-22T14:15:02;7.30;;;6.57;;
15082;SDS011;7640;53.116;6.878;2023-06-22T14:17:33;7.57;;;6.78;;
15082;SDS011;7640;53.116;6.878;2023-06-22T14:20:02;7.57;;;6.32;;
15082;SDS011;7640;53.116;6.878;2023-06-22T14:22:34;6.70;;;6.00;;
15082;SDS011;7640;53.116;6.878;2023-06-22T14:25:04;7.28;;;6.13;;
15082;SDS011;7640;53.116;6.878;2023-06-22T14:27:34;5.93;;;5.40;;
15082;SDS011;7640;53.116;6.878;2023-06-22T14:30:02;6.55;;;5.60;;
15082;SDS011;7640;53.116;6.878;2023-06-22T14:32:34;8.38;;;5.90;;
15082;SDS011;7640;53.116;6.878;2023-06-22T14:35:04;5.63;;;5.13;;
15082;SDS011;7640;53.116;6.878;2023-06-22T14:37:33;6.68;;;5.97;;
15082;SDS011;7640;53.116;6.878;2023-06-22T14:40:02;5.88;;;5.28;;
15082;SDS011;7640;53.116;6.878;2023-06-22T14:42:31;6.43;;;5.55;;
15082;SDS011;7640;53.116;6.878;2023-06-22T14:44:59;5.82;;;5.05;;
15082;SDS011;7640;53.116;6.878;2023-06-22T14:47:28;9.68;;;5.07;;
15082;SDS011;7640;53.116;6.878;2023-06-22T14:49:58;7.07;;;5.45;;
15082;SDS011;7640;53.116;6.878;2023-06-22T14:52:27;6.07;;;4.85;;
15082;SDS011;7640;53.116;6.878;2023-06-22T14:54:56;5.60;;;4.43;;
15082;SDS011;7640;53.116;6.878;2023-06-22T14:57:25;5.30;;;4.32;;
15082;SDS011;7640;53.116;6.878;2023-06-22T14:59:53;5.57;;;4.35;;
15082;SDS011;7640;53.116;6.878;2023-06-22T15:02:22;4.63;;;4.22;;